York, Western Australia

10:41 AM WST on July 31, 2014 (GMT +0800)
Koojedda (IWESTERN189) Elev 1047 ft | 31.74 °S, 116.44 °E | Change Station

Current weather conditions updated 11 minutes ago

Mostly Cloudy
Mostly Cloudy
50.9 °F
Feels Like 50.9 °F
N
4.0
Wind Variable Wind from SE
Gusts 11.0 mph

Today is forecast to be nearly the same temperature as yesterday.

Today
High -- | Low -- °F
--% Chance of Precip.
Yesterday
High -- | Low -- °F
Precip. -- in
7:02 AM 5:36 PM
Waxing Crescent, 15% visible
Pressure 30.36 in
Visibility 6.2 miles
Clouds Mostly Cloudy 3500 ft
Dew Point 42 °F
Humidity 72%
Rainfall 0.00 in
Snow Depth Not available.
UV 2.2 out of 12
Pollen Not available.
Air Quality Not available.
Flu Activity Not available.
METAR YPPH 310230Z 14008KT 9999 BKN035 13/05 Q1028

More Conditions Fewer Conditions

Pressure 30.36 in
Visibility 6.2 miles
Clouds Mostly Cloudy 3500 ft
Dew Point 42 °F
Humidity 72%
Rainfall 0.00 in
Snow Depth Not available.
UV 2.2 out of 12
Pollen Not available.
Air Quality Not available.
Flu Activity Not available.
METAR YPPH 310230Z 14008KT 9999 BKN035 13/05 Q1028

More Conditions Fewer Conditions

10-Day Weather Forecast

Almanac

Astronomy

Jul. 31, 2014 Rise Set
Actual Time 7:02 AM WST 5:36 PM WST
Civil Twilight 6:36 AM WST 6:02 PM WST
Nautical Twilight 6:07 AM WST 6:31 PM WST
Astronomical Twilight 5:38 AM WST 7:00 PM WST
Moon 9:09 AM WST 9:31 PM WST
Length of Visible Light 11h 25m
Length of Day
10h 33m
Tomorrow will be 1m 22s longer.
Waxing Crescent, 15% of the Moon is Illuminated
Jul 30
Waxing Crescent
Aug 3
First Quarter
Aug 10
Full
Aug 17
Last Quarter
Aug 25
New

Yesterday's Extremes

Country Highs Country Lows

Community

WunderPhotos

Upload Photos

1,739,275 photos uploaded!

Nearby

Snow Depth

Not available.

Earthquake Activity

City Distance Mag. Time & Date
No recent earthquake activity has been reported nearby.
Minimum magnitude displayed is 2.5.

Coastal Water Temperatures

Place Temperature
No Stations Reporting

Nearby Weather Stations

Station Location Temp. Dew Point Humidity Wind Precip. Elev Updated Type
Koojedda, Bakers Hill 50.9 °F 42 °F 72% SE  at  4.0 mph 0.00 in / hr 1047 ft 10:30 AM WST Normal

Show More Stations Show Fewer Stations